UAL2610 KLAX-KDEN
Flight info
| Callsign | UAL2610 |
|---|---|
| Flight time | 2h 4m |
| Altitude | 37000 |
| Route | ORCKA5 LAS J146 DICEE BUMMP SSKII4 |
| Aircraft | B752/M-SDE3FGHIJ4J7M3P2RWXY/LB1D1 |
Departure
| Time | 2026-05-04 01:40 |
|---|---|
| Airport | Los Angeles International Airport (KLAX) |
Arrival
| Time | 2026-05-04 03:44 |
|---|---|
| Airport | Denver International Airport (KDEN) |
| Time | Latitude | Longitude | Altitude | Speed | Heading |
|---|---|---|---|---|---|
| 2026-05-04 00:53 | 33.94237 | -118.40048 | 119 ft | 0 kts | 87° |
| 2026-05-04 01:26 | 33.94235 | -118.40060 | 119 ft | 2 kts | 55° |
| 2026-05-04 01:26 | 33.94226 | -118.40075 | 119 ft | 2 kts | 62° |
| 2026-05-04 01:26 | 33.94222 | -118.40090 | 119 ft | 1 kts | 105° |
| 2026-05-04 01:27 | 33.94231 | -118.40104 | 119 ft | 2 kts | 159° |
| 2026-05-04 01:27 | 33.94234 | -118.40105 | 119 ft | 1 kts | 173° |
| 2026-05-04 01:27 | 33.94212 | -118.40101 | 119 ft | 2 kts | 174° |
| 2026-05-04 01:27 | 33.94208 | -118.40100 | 119 ft | 0 kts | 174° |
| 2026-05-04 01:32 | 33.94207 | -118.40100 | 119 ft | 1 kts | 174° |
| 2026-05-04 01:33 | 33.94185 | -118.40097 | 119 ft | 4 kts | 171° |
| 2026-05-04 01:33 | 33.94148 | -118.40091 | 119 ft | 5 kts | 174° |
| 2026-05-04 01:33 | 33.94104 | -118.40085 | 119 ft | 6 kts | 174° |
| 2026-05-04 01:33 | 33.94059 | -118.40079 | 119 ft | 4 kts | 173° |
| 2026-05-04 01:34 | 33.94046 | -118.40076 | 119 ft | 0 kts | 173° |
| 2026-05-04 01:34 | 33.94043 | -118.40076 | 119 ft | 1 kts | 174° |
| 2026-05-04 01:34 | 33.94019 | -118.40073 | 120 ft | 6 kts | 174° |
| 2026-05-04 01:34 | 33.93946 | -118.40062 | 120 ft | 13 kts | 173° |
| 2026-05-04 01:35 | 33.93880 | -118.40037 | 119 ft | 8 kts | 118° |
| 2026-05-04 01:35 | 33.93886 | -118.39956 | 118 ft | 13 kts | 81° |
| 2026-05-04 01:35 | 33.93899 | -118.39815 | 115 ft | 20 kts | 84° |
| 2026-05-04 01:35 | 33.93917 | -118.39640 | 112 ft | 21 kts | 84° |
| 2026-05-04 01:36 | 33.93933 | -118.39479 | 112 ft | 18 kts | 83° |
| 2026-05-04 01:36 | 33.93950 | -118.39316 | 109 ft | 20 kts | 83° |
| 2026-05-04 01:36 | 33.93967 | -118.39150 | 109 ft | 19 kts | 83° |
| 2026-05-04 01:36 | 33.93983 | -118.38987 | 106 ft | 19 kts | 83° |
| 2026-05-04 01:37 | 33.94000 | -118.38824 | 106 ft | 19 kts | 83° |
| 2026-05-04 01:37 | 33.94016 | -118.38665 | 106 ft | 18 kts | 83° |
| 2026-05-04 01:37 | 33.94032 | -118.38512 | 106 ft | 18 kts | 83° |
| 2026-05-04 01:37 | 33.94048 | -118.38353 | 103 ft | 19 kts | 83° |
| 2026-05-04 01:38 | 33.94064 | -118.38191 | 103 ft | 19 kts | 83° |
| 2026-05-04 01:38 | 33.94076 | -118.38046 | 103 ft | 12 kts | 95° |
| 2026-05-04 01:38 | 33.94019 | -118.37999 | 103 ft | 9 kts | 176° |
| 2026-05-04 01:38 | 33.93984 | -118.38037 | 103 ft | 7 kts | 259° |
| 2026-05-04 01:39 | 33.93982 | -118.38044 | 103 ft | 0 kts | 262° |
| 2026-05-04 01:39 | 33.93982 | -118.38045 | 103 ft | 0 kts | 262° |
| 2026-05-04 01:39 | 33.93974 | -118.38119 | 103 ft | 26 kts | 263° |
| 2026-05-04 01:39 | 33.93922 | -118.38629 | 106 ft | 97 kts | 263° |
| 2026-05-04 01:40 | 33.93813 | -118.39710 | 114 ft | 161 kts | 263° |
| 2026-05-04 01:40 | 33.93681 | -118.41167 | 559 ft | 184 kts | 265° |
| 2026-05-04 01:40 | 33.93567 | -118.42782 | 1210 ft | 207 kts | 263° |
| 2026-05-04 01:40 | 33.93348 | -118.44611 | 1810 ft | 246 kts | 260° |
| 2026-05-04 01:41 | 33.93024 | -118.46818 | 2477 ft | 283 kts | 260° |
| 2026-05-04 01:41 | 33.92693 | -118.49152 | 3710 ft | 294 kts | 261° |
| 2026-05-04 01:41 | 33.92344 | -118.51473 | 4360 ft | 265 kts | 259° |
| 2026-05-04 01:41 | 33.92022 | -118.53492 | 5131 ft | 239 kts | 260° |
| 2026-05-04 01:42 | 33.91704 | -118.55456 | 5854 ft | 247 kts | 258° |
| 2026-05-04 01:42 | 33.91396 | -118.57516 | 6536 ft | 258 kts | 262° |
| 2026-05-04 01:42 | 33.91143 | -118.59681 | 7150 ft | 271 kts | 261° |
| 2026-05-04 01:42 | 33.90807 | -118.62039 | 7322 ft | 301 kts | 260° |
| 2026-05-04 01:43 | 33.90441 | -118.64641 | 6815 ft | 353 kts | 261° |
| 2026-05-04 01:43 | 33.90098 | -118.67802 | 5699 ft | 404 kts | 262° |
| 2026-05-04 01:43 | 33.89732 | -118.71097 | 6816 ft | 388 kts | 262° |
| 2026-05-04 01:43 | 33.89427 | -118.74043 | 7875 ft | 328 kts | 262° |
| 2026-05-04 01:44 | 33.89196 | -118.76504 | 8905 ft | 270 kts | 262° |
| 2026-05-04 01:44 | 33.89003 | -118.78669 | 9898 ft | 260 kts | 261° |
| 2026-05-04 01:44 | 33.88783 | -118.80922 | 10000 ft | 284 kts | 261° |
| 2026-05-04 01:44 | 33.88273 | -118.83187 | 9977 ft | 280 kts | 240° |
| 2026-05-04 01:45 | 33.86995 | -118.84920 | 9999 ft | 277 kts | 213° |
| 2026-05-04 01:45 | 33.85231 | -118.85593 | 10672 ft | 267 kts | 183° |
| 2026-05-04 01:45 | 33.82011 | -118.83620 | 12326 ft | 281 kts | 127° |
| 2026-05-04 01:46 | 33.81308 | -118.81406 | 13149 ft | 290 kts | 98° |
| 2026-05-04 01:46 | 33.81520 | -118.79012 | 13962 ft | 296 kts | 72° |
| 2026-05-04 01:46 | 33.82294 | -118.76720 | 14715 ft | 298 kts | 69° |
| 2026-05-04 01:46 | 33.83102 | -118.74332 | 14974 ft | 321 kts | 69° |
| 2026-05-04 01:47 | 33.83939 | -118.71787 | 14954 ft | 332 kts | 70° |
| 2026-05-04 01:47 | 33.84784 | -118.69201 | 14961 ft | 328 kts | 70° |
| 2026-05-04 01:47 | 33.85614 | -118.66648 | 14964 ft | 328 kts | 69° |
| 2026-05-04 01:47 | 33.86470 | -118.64002 | 15116 ft | 353 kts | 70° |
| 2026-05-04 01:48 | 33.87396 | -118.61137 | 15343 ft | 376 kts | 69° |
| 2026-05-04 01:48 | 33.88364 | -118.58141 | 15488 ft | 400 kts | 69° |
| 2026-05-04 01:48 | 33.89401 | -118.54929 | 15471 ft | 415 kts | 69° |
| 2026-05-04 01:48 | 33.90443 | -118.51699 | 15470 ft | 414 kts | 69° |
| 2026-05-04 01:49 | 33.91483 | -118.48467 | 15471 ft | 414 kts | 69° |
| 2026-05-04 01:49 | 33.92540 | -118.45219 | 15467 ft | 413 kts | 66° |
| 2026-05-04 01:49 | 33.93944 | -118.42225 | 15481 ft | 415 kts | 54° |
| 2026-05-04 01:49 | 33.95568 | -118.39346 | 15471 ft | 416 kts | 55° |
| 2026-05-04 01:50 | 33.97179 | -118.36478 | 15462 ft | 412 kts | 55° |
| 2026-05-04 01:50 | 33.98785 | -118.33633 | 15461 ft | 414 kts | 56° |
| 2026-05-04 01:50 | 34.00400 | -118.30774 | 15461 ft | 414 kts | 55° |
| 2026-05-04 01:50 | 34.02013 | -118.27927 | 15458 ft | 412 kts | 55° |
| 2026-05-04 01:51 | 34.03656 | -118.25026 | 15701 ft | 422 kts | 55° |
| 2026-05-04 01:51 | 34.05320 | -118.22088 | 16372 ft | 428 kts | 54° |
| 2026-05-04 01:51 | 34.07013 | -118.19098 | 16997 ft | 434 kts | 54° |
| 2026-05-04 01:51 | 34.08728 | -118.16063 | 17568 ft | 440 kts | 53° |
| 2026-05-04 01:52 | 34.10469 | -118.12986 | 17980 ft | 451 kts | 53° |
| 2026-05-04 01:52 | 34.12214 | -118.09897 | 18687 ft | 452 kts | 54° |
| 2026-05-04 01:52 | 34.14015 | -118.06702 | 19271 ft | 457 kts | 53° |
| 2026-05-04 01:52 | 34.15791 | -118.03553 | 19808 ft | 462 kts | 53° |
| 2026-05-04 01:53 | 34.17625 | -118.00298 | 20253 ft | 471 kts | 54° |
| 2026-05-04 01:53 | 34.19472 | -117.97021 | 20775 ft | 475 kts | 54° |
| 2026-05-04 01:53 | 34.21331 | -117.93705 | 21327 ft | 479 kts | 53° |
| 2026-05-04 01:53 | 34.23212 | -117.90356 | 21996 ft | 480 kts | 53° |
| 2026-05-04 01:54 | 34.25100 | -117.86991 | 22381 ft | 487 kts | 53° |
| 2026-05-04 01:54 | 34.27004 | -117.83597 | 22904 ft | 492 kts | 53° |
| 2026-05-04 01:54 | 34.28927 | -117.80162 | 23426 ft | 495 kts | 53° |
| 2026-05-04 01:54 | 34.30877 | -117.76678 | 23781 ft | 503 kts | 53° |
| 2026-05-04 01:55 | 34.32809 | -117.73220 | 24357 ft | 504 kts | 54° |
| 2026-05-04 01:55 | 34.34815 | -117.69701 | 24767 ft | 509 kts | 49° |
| 2026-05-04 01:55 | 34.37089 | -117.66369 | 25247 ft | 511 kts | 45° |
| 2026-05-04 01:55 | 34.39388 | -117.63115 | 25700 ft | 514 kts | 45° |
| 2026-05-04 01:56 | 34.41732 | -117.59792 | 26088 ft | 521 kts | 45° |
| 2026-05-04 01:56 | 34.44054 | -117.56490 | 26785 ft | 517 kts | 45° |
| 2026-05-04 01:56 | 34.46415 | -117.53146 | 26907 ft | 529 kts | 45° |
| 2026-05-04 01:56 | 34.48797 | -117.49762 | 27674 ft | 523 kts | 45° |
| 2026-05-04 01:57 | 34.51186 | -117.46368 | 27888 ft | 533 kts | 45° |
| 2026-05-04 01:57 | 34.53595 | -117.42943 | 28287 ft | 536 kts | 45° |
| 2026-05-04 01:57 | 34.56002 | -117.39511 | 28833 ft | 536 kts | 45° |
| 2026-05-04 01:57 | 34.58431 | -117.36055 | 29128 ft | 542 kts | 45° |
| 2026-05-04 01:58 | 34.60872 | -117.32570 | 29533 ft | 545 kts | 45° |
| 2026-05-04 01:58 | 34.63337 | -117.29057 | 29808 ft | 549 kts | 46° |
| 2026-05-04 01:58 | 34.65825 | -117.25495 | 30043 ft | 554 kts | 45° |
| 2026-05-04 01:58 | 34.68304 | -117.21942 | 30490 ft | 554 kts | 45° |
| 2026-05-04 01:59 | 34.70814 | -117.18357 | 30640 ft | 560 kts | 45° |
| 2026-05-04 01:59 | 34.73349 | -117.14721 | 30920 ft | 563 kts | 45° |
| 2026-05-04 01:59 | 34.75890 | -117.11080 | 31030 ft | 571 kts | 45° |
| 2026-05-04 01:59 | 34.78450 | -117.07392 | 31451 ft | 570 kts | 45° |
| 2026-05-04 02:00 | 34.81022 | -117.03698 | 31556 ft | 576 kts | 45° |
| 2026-05-04 02:00 | 34.83605 | -116.99970 | 32033 ft | 573 kts | 44° |
| 2026-05-04 02:00 | 34.88810 | -116.92466 | 32521 ft | 579 kts | 44° |
| 2026-05-04 02:01 | 34.91410 | -116.88705 | 32791 ft | 580 kts | 42° |
| 2026-05-04 02:01 | 34.94036 | -116.84911 | 32989 ft | 584 kts | 43° |
| 2026-05-04 02:01 | 34.96652 | -116.81129 | 33433 ft | 582 kts | 44° |
| 2026-05-04 02:01 | 34.99292 | -116.77308 | 33577 ft | 587 kts | 43° |
| 2026-05-04 02:02 | 35.01893 | -116.73532 | 33959 ft | 588 kts | 43° |
| 2026-05-04 02:02 | 35.04535 | -116.69694 | 34399 ft | 586 kts | 43° |
| 2026-05-04 02:02 | 35.07157 | -116.65875 | 35009 ft | 582 kts | 43° |
| 2026-05-04 02:02 | 35.09721 | -116.62138 | 35677 ft | 574 kts | 43° |
| 2026-05-04 02:03 | 35.12314 | -116.58369 | 35781 ft | 579 kts | 43° |
| 2026-05-04 02:03 | 35.14908 | -116.54583 | 36225 ft | 576 kts | 43° |
| 2026-05-04 02:03 | 35.17468 | -116.50843 | 36644 ft | 574 kts | 44° |
| 2026-05-04 02:03 | 35.20057 | -116.47067 | 36712 ft | 578 kts | 44° |
| 2026-05-04 02:04 | 35.22614 | -116.43321 | 36834 ft | 575 kts | 43° |
| 2026-05-04 02:04 | 35.25192 | -116.39541 | 36833 ft | 574 kts | 43° |
| 2026-05-04 02:04 | 35.30306 | -116.32037 | 36819 ft | 575 kts | 44° |
| 2026-05-04 02:05 | 35.35408 | -116.24535 | 36825 ft | 572 kts | 44° |
| 2026-05-04 02:05 | 35.40485 | -116.17049 | 36822 ft | 570 kts | 44° |
| 2026-05-04 02:06 | 35.45612 | -116.09485 | 36839 ft | 575 kts | 45° |
| 2026-05-04 02:06 | 35.50678 | -116.01974 | 36856 ft | 569 kts | 44° |
| 2026-05-04 02:07 | 35.55732 | -115.94482 | 36864 ft | 570 kts | 45° |
| 2026-05-04 02:07 | 35.60782 | -115.86975 | 36854 ft | 569 kts | 45° |
| 2026-05-04 02:08 | 35.65798 | -115.79497 | 36860 ft | 567 kts | 44° |
| 2026-05-04 02:08 | 35.70826 | -115.71995 | 36863 ft | 569 kts | 44° |
| 2026-05-04 02:09 | 35.75820 | -115.64523 | 36884 ft | 571 kts | 44° |
| 2026-05-04 02:09 | 35.80862 | -115.56947 | 36894 ft | 566 kts | 44° |
| 2026-05-04 02:10 | 35.85846 | -115.49463 | 36912 ft | 566 kts | 45° |
| 2026-05-04 02:10 | 35.90801 | -115.42003 | 36909 ft | 568 kts | 45° |
| 2026-05-04 02:11 | 35.95824 | -115.34412 | 36884 ft | 567 kts | 44° |
| 2026-05-04 02:11 | 36.00773 | -115.26929 | 36838 ft | 564 kts | 44° |
| 2026-05-04 02:12 | 36.05679 | -115.19379 | 36807 ft | 565 kts | 49° |
| 2026-05-04 02:12 | 36.09456 | -115.10735 | 36810 ft | 575 kts | 65° |
| 2026-05-04 02:13 | 36.12386 | -115.01583 | 36792 ft | 578 kts | 67° |
| 2026-05-04 02:13 | 36.15261 | -114.92332 | 36783 ft | 576 kts | 66° |
| 2026-05-04 02:14 | 36.18115 | -114.83068 | 36794 ft | 576 kts | 68° |
| 2026-05-04 02:14 | 36.20950 | -114.73817 | 36808 ft | 572 kts | 68° |
| 2026-05-04 02:15 | 36.23766 | -114.64622 | 36820 ft | 575 kts | 68° |
| 2026-05-04 02:15 | 36.26599 | -114.55310 | 36836 ft | 574 kts | 67° |
| 2026-05-04 02:16 | 36.29403 | -114.46089 | 36841 ft | 571 kts | 68° |
| 2026-05-04 02:16 | 36.32210 | -114.36807 | 36862 ft | 573 kts | 66° |
| 2026-05-04 02:17 | 36.34995 | -114.27582 | 36845 ft | 571 kts | 68° |
| 2026-05-04 02:17 | 36.37769 | -114.18353 | 36850 ft | 572 kts | 68° |
| 2026-05-04 02:18 | 36.40534 | -114.09126 | 36850 ft | 571 kts | 67° |
| 2026-05-04 02:18 | 36.43305 | -113.99857 | 36864 ft | 569 kts | 68° |
| 2026-05-04 02:19 | 36.46036 | -113.90677 | 36895 ft | 568 kts | 67° |
| 2026-05-04 02:19 | 36.48778 | -113.81443 | 36946 ft | 568 kts | 67° |
| 2026-05-04 02:20 | 36.51485 | -113.72290 | 36974 ft | 566 kts | 68° |
| 2026-05-04 02:20 | 36.54203 | -113.63071 | 37012 ft | 566 kts | 68° |
| 2026-05-04 02:21 | 36.56898 | -113.53897 | 37021 ft | 564 kts | 68° |
| 2026-05-04 02:21 | 36.59597 | -113.44688 | 37038 ft | 562 kts | 67° |
| 2026-05-04 02:22 | 36.62269 | -113.35529 | 37055 ft | 563 kts | 67° |
| 2026-05-04 02:22 | 36.64921 | -113.26399 | 37044 ft | 559 kts | 68° |
| 2026-05-04 02:23 | 36.67564 | -113.17274 | 37067 ft | 560 kts | 68° |
| 2026-05-04 02:23 | 36.70185 | -113.08193 | 37065 ft | 558 kts | 69° |
| 2026-05-04 02:24 | 36.72810 | -112.99072 | 37074 ft | 557 kts | 68° |
| 2026-05-04 02:24 | 36.75407 | -112.90012 | 37067 ft | 557 kts | 68° |
| 2026-05-04 02:25 | 36.78006 | -112.80907 | 37064 ft | 557 kts | 69° |
| 2026-05-04 02:25 | 36.80549 | -112.71984 | 37058 ft | 555 kts | 68° |
| 2026-05-04 02:26 | 36.83129 | -112.62888 | 37062 ft | 555 kts | 68° |
| 2026-05-04 02:26 | 36.85696 | -112.53814 | 37068 ft | 555 kts | 68° |
| 2026-05-04 02:27 | 36.88254 | -112.44746 | 37069 ft | 554 kts | 68° |
| 2026-05-04 02:27 | 36.90799 | -112.35658 | 37080 ft | 554 kts | 68° |
| 2026-05-04 02:28 | 36.93341 | -112.26593 | 37066 ft | 553 kts | 69° |
| 2026-05-04 02:28 | 36.95859 | -112.17584 | 37067 ft | 552 kts | 69° |
| 2026-05-04 02:29 | 36.98386 | -112.08503 | 37061 ft | 551 kts | 68° |
| 2026-05-04 02:29 | 37.00886 | -111.99501 | 37070 ft | 551 kts | 69° |
| 2026-05-04 02:30 | 37.03390 | -111.90448 | 37080 ft | 551 kts | 69° |
| 2026-05-04 02:30 | 37.05895 | -111.81361 | 37087 ft | 552 kts | 68° |
| 2026-05-04 02:31 | 37.08392 | -111.72273 | 37083 ft | 553 kts | 68° |
| 2026-05-04 02:31 | 37.10862 | -111.63248 | 37081 ft | 551 kts | 68° |
| 2026-05-04 02:32 | 37.13341 | -111.54162 | 37074 ft | 553 kts | 68° |
| 2026-05-04 02:32 | 37.15816 | -111.45060 | 37067 ft | 553 kts | 68° |
| 2026-05-04 02:33 | 37.18289 | -111.35937 | 37075 ft | 552 kts | 69° |
| 2026-05-04 02:33 | 37.20745 | -111.26839 | 37060 ft | 554 kts | 69° |
| 2026-05-04 02:34 | 37.23734 | -111.17997 | 37062 ft | 550 kts | 59° |
| 2026-05-04 02:34 | 37.27123 | -111.09444 | 37043 ft | 549 kts | 60° |
| 2026-05-04 02:35 | 37.30513 | -111.00896 | 37069 ft | 551 kts | 59° |
| 2026-05-04 02:35 | 37.33911 | -110.92320 | 37075 ft | 551 kts | 59° |
| 2026-05-04 02:36 | 37.37317 | -110.83703 | 37073 ft | 550 kts | 59° |
| 2026-05-04 02:36 | 37.40703 | -110.75118 | 37066 ft | 551 kts | 59° |
| 2026-05-04 02:37 | 37.44075 | -110.66540 | 37072 ft | 550 kts | 59° |
| 2026-05-04 02:37 | 37.47468 | -110.57890 | 37076 ft | 552 kts | 59° |
| 2026-05-04 02:38 | 37.50837 | -110.49275 | 37076 ft | 552 kts | 58° |
| 2026-05-04 02:38 | 37.54222 | -110.40593 | 37095 ft | 552 kts | 59° |
| 2026-05-04 02:39 | 37.57584 | -110.31953 | 37073 ft | 552 kts | 59° |
| 2026-05-04 02:39 | 37.60925 | -110.23334 | 37071 ft | 551 kts | 59° |
| 2026-05-04 02:40 | 37.64292 | -110.14634 | 37080 ft | 553 kts | 59° |
| 2026-05-04 02:40 | 37.67643 | -110.05943 | 37088 ft | 551 kts | 60° |
| 2026-05-04 02:41 | 37.70985 | -109.97253 | 37120 ft | 552 kts | 59° |
| 2026-05-04 02:41 | 37.74328 | -109.88534 | 37129 ft | 552 kts | 60° |
| 2026-05-04 02:42 | 37.77651 | -109.79845 | 37136 ft | 551 kts | 60° |
| 2026-05-04 02:42 | 37.80967 | -109.71147 | 37139 ft | 551 kts | 60° |
| 2026-05-04 02:43 | 37.84276 | -109.62446 | 37144 ft | 550 kts | 59° |
| 2026-05-04 02:43 | 37.87570 | -109.53754 | 37149 ft | 549 kts | 59° |
| 2026-05-04 02:44 | 37.90861 | -109.45057 | 37157 ft | 549 kts | 59° |
| 2026-05-04 02:44 | 37.94152 | -109.36334 | 37161 ft | 551 kts | 59° |
| 2026-05-04 02:45 | 37.97420 | -109.27632 | 37133 ft | 546 kts | 60° |
| 2026-05-04 02:45 | 38.00701 | -109.18893 | 37146 ft | 552 kts | 61° |
| 2026-05-04 02:46 | 38.03976 | -109.10124 | 37142 ft | 547 kts | 60° |
| 2026-05-04 02:46 | 38.07207 | -109.01450 | 37155 ft | 544 kts | 60° |
| 2026-05-04 02:47 | 38.10457 | -108.92753 | 37178 ft | 544 kts | 58° |
| 2026-05-04 02:47 | 38.13812 | -108.84257 | 37158 ft | 542 kts | 59° |
| 2026-05-04 02:48 | 38.17198 | -108.75644 | 37173 ft | 544 kts | 59° |
| 2026-05-04 02:48 | 38.20551 | -108.67089 | 37191 ft | 541 kts | 58° |
| 2026-05-04 02:49 | 38.23882 | -108.58562 | 37196 ft | 541 kts | 58° |
| 2026-05-04 02:49 | 38.27228 | -108.49977 | 37237 ft | 541 kts | 58° |
| 2026-05-04 02:50 | 38.30523 | -108.41492 | 37234 ft | 537 kts | 59° |
| 2026-05-04 02:50 | 38.33839 | -108.32938 | 37237 ft | 538 kts | 58° |
| 2026-05-04 02:51 | 38.37116 | -108.24448 | 37239 ft | 535 kts | 59° |
| 2026-05-04 02:51 | 38.40419 | -108.15881 | 37217 ft | 535 kts | 59° |
| 2026-05-04 02:52 | 38.43697 | -108.07352 | 37230 ft | 535 kts | 58° |
| 2026-05-04 02:52 | 38.46931 | -107.98892 | 37234 ft | 536 kts | 59° |
| 2026-05-04 02:53 | 38.50142 | -107.90402 | 37170 ft | 532 kts | 59° |
| 2026-05-04 02:53 | 38.53353 | -107.81884 | 37205 ft | 531 kts | 59° |
| 2026-05-04 02:54 | 38.56541 | -107.73404 | 37219 ft | 526 kts | 59° |
| 2026-05-04 02:54 | 38.59707 | -107.64969 | 37155 ft | 526 kts | 59° |
| 2026-05-04 02:55 | 38.64426 | -107.52342 | 37365 ft | 523 kts | 59° |
| 2026-05-04 02:56 | 38.67578 | -107.43992 | 37341 ft | 528 kts | 59° |
| 2026-05-04 02:56 | 38.70767 | -107.35566 | 37333 ft | 525 kts | 59° |
| 2026-05-04 02:57 | 38.73951 | -107.27137 | 37339 ft | 523 kts | 60° |
| 2026-05-04 02:57 | 38.77078 | -107.18823 | 37319 ft | 522 kts | 59° |
| 2026-05-04 02:58 | 38.80212 | -107.10481 | 37326 ft | 520 kts | 60° |
| 2026-05-04 02:58 | 38.81756 | -107.06351 | 37274 ft | 505 kts | 60° |
| 2026-05-04 02:58 | 38.83239 | -107.02374 | 37128 ft | 486 kts | 59° |
| 2026-05-04 02:58 | 38.84688 | -106.98497 | 36428 ft | 480 kts | 59° |
| 2026-05-04 02:59 | 38.86133 | -106.94634 | 35730 ft | 477 kts | 60° |
| 2026-05-04 02:59 | 38.87550 | -106.90837 | 34915 ft | 478 kts | 60° |
| 2026-05-04 02:59 | 38.88964 | -106.87040 | 34215 ft | 473 kts | 60° |
| 2026-05-04 02:59 | 38.90368 | -106.83260 | 33429 ft | 465 kts | 60° |
| 2026-05-04 03:00 | 38.91740 | -106.79563 | 32803 ft | 460 kts | 60° |
| 2026-05-04 03:00 | 38.93128 | -106.75829 | 32199 ft | 473 kts | 60° |
| 2026-05-04 03:00 | 38.94567 | -106.71954 | 31576 ft | 483 kts | 61° |
| 2026-05-04 03:00 | 38.96001 | -106.68072 | 30994 ft | 484 kts | 61° |
| 2026-05-04 03:01 | 38.97435 | -106.64186 | 30429 ft | 480 kts | 61° |
| 2026-05-04 03:01 | 38.98853 | -106.60342 | 29886 ft | 478 kts | 61° |
| 2026-05-04 03:01 | 39.00255 | -106.56525 | 29647 ft | 468 kts | 61° |
| 2026-05-04 03:01 | 39.01642 | -106.52742 | 28994 ft | 470 kts | 61° |
| 2026-05-04 03:02 | 39.03027 | -106.48959 | 28368 ft | 465 kts | 62° |
| 2026-05-04 03:02 | 39.04372 | -106.45277 | 27772 ft | 457 kts | 61° |
| 2026-05-04 03:02 | 39.05706 | -106.41625 | 27169 ft | 449 kts | 61° |
| 2026-05-04 03:02 | 39.07017 | -106.38030 | 26603 ft | 443 kts | 62° |
| 2026-05-04 03:03 | 39.08319 | -106.34457 | 26039 ft | 439 kts | 62° |
| 2026-05-04 03:03 | 39.09604 | -106.30925 | 25488 ft | 436 kts | 62° |
| 2026-05-04 03:03 | 39.10891 | -106.27384 | 24958 ft | 434 kts | 62° |
| 2026-05-04 03:03 | 39.12159 | -106.23889 | 24430 ft | 429 kts | 63° |
| 2026-05-04 03:04 | 39.13409 | -106.20442 | 23917 ft | 424 kts | 63° |
| 2026-05-04 03:04 | 39.14637 | -106.17049 | 23433 ft | 419 kts | 62° |
| 2026-05-04 03:04 | 39.15865 | -106.13650 | 23030 ft | 415 kts | 62° |
| 2026-05-04 03:04 | 39.17056 | -106.10339 | 22771 ft | 412 kts | 63° |
| 2026-05-04 03:05 | 39.18278 | -106.06944 | 22505 ft | 415 kts | 63° |
| 2026-05-04 03:05 | 39.19487 | -106.03577 | 22236 ft | 415 kts | 63° |
| 2026-05-04 03:05 | 39.20675 | -106.00264 | 21968 ft | 410 kts | 63° |
| 2026-05-04 03:05 | 39.21865 | -105.96944 | 21704 ft | 408 kts | 63° |
| 2026-05-04 03:06 | 39.23060 | -105.93606 | 21432 ft | 407 kts | 63° |
| 2026-05-04 03:06 | 39.24246 | -105.90299 | 21164 ft | 407 kts | 63° |
| 2026-05-04 03:06 | 39.25427 | -105.87027 | 20871 ft | 404 kts | 63° |
| 2026-05-04 03:06 | 39.26610 | -105.83744 | 20584 ft | 401 kts | 63° |
| 2026-05-04 03:07 | 39.27769 | -105.80523 | 20308 ft | 399 kts | 63° |
| 2026-05-04 03:07 | 39.28931 | -105.77291 | 20037 ft | 398 kts | 63° |
| 2026-05-04 03:07 | 39.30094 | -105.74052 | 19743 ft | 396 kts | 63° |
| 2026-05-04 03:07 | 39.31240 | -105.70860 | 19440 ft | 391 kts | 63° |
| 2026-05-04 03:08 | 39.32375 | -105.67690 | 19283 ft | 384 kts | 63° |
| 2026-05-04 03:08 | 39.33490 | -105.64632 | 19086 ft | 380 kts | 63° |
| 2026-05-04 03:08 | 39.34623 | -105.61532 | 18752 ft | 379 kts | 63° |
| 2026-05-04 03:08 | 39.35736 | -105.58484 | 18427 ft | 374 kts | 63° |
| 2026-05-04 03:09 | 39.36829 | -105.55486 | 18149 ft | 369 kts | 63° |
| 2026-05-04 03:09 | 39.37922 | -105.52483 | 17922 ft | 370 kts | 63° |
| 2026-05-04 03:09 | 39.39020 | -105.49468 | 17627 ft | 373 kts | 63° |
| 2026-05-04 03:09 | 39.40107 | -105.46472 | 17277 ft | 365 kts | 62° |
| 2026-05-04 03:10 | 39.41101 | -105.43562 | 17196 ft | 340 kts | 71° |
| 2026-05-04 03:10 | 39.41508 | -105.40627 | 17224 ft | 333 kts | 85° |
| 2026-05-04 03:10 | 39.41603 | -105.37579 | 16928 ft | 354 kts | 86° |
| 2026-05-04 03:10 | 39.41669 | -105.34415 | 16481 ft | 347 kts | 88° |
| 2026-05-04 03:11 | 39.41712 | -105.31351 | 16121 ft | 337 kts | 88° |
| 2026-05-04 03:11 | 39.41743 | -105.28342 | 15778 ft | 332 kts | 88° |
| 2026-05-04 03:11 | 39.41766 | -105.25373 | 15465 ft | 331 kts | 88° |
| 2026-05-04 03:11 | 39.41785 | -105.22426 | 15097 ft | 327 kts | 88° |
| 2026-05-04 03:12 | 39.41801 | -105.19503 | 14827 ft | 326 kts | 88° |
| 2026-05-04 03:12 | 39.41816 | -105.16553 | 14533 ft | 330 kts | 88° |
| 2026-05-04 03:12 | 39.41829 | -105.13596 | 14155 ft | 330 kts | 88° |
| 2026-05-04 03:12 | 39.41841 | -105.10668 | 13777 ft | 324 kts | 88° |
| 2026-05-04 03:13 | 39.41852 | -105.07809 | 13531 ft | 319 kts | 87° |
| 2026-05-04 03:13 | 39.41862 | -105.04929 | 13363 ft | 313 kts | 87° |
| 2026-05-04 03:13 | 39.41869 | -105.02241 | 13237 ft | 291 kts | 87° |
| 2026-05-04 03:13 | 39.41876 | -104.99721 | 13114 ft | 270 kts | 87° |
| 2026-05-04 03:14 | 39.41884 | -104.97379 | 13141 ft | 262 kts | 87° |
| 2026-05-04 03:14 | 39.41897 | -104.94948 | 13123 ft | 272 kts | 85° |
| 2026-05-04 03:14 | 39.42047 | -104.92525 | 13026 ft | 277 kts | 80° |
| 2026-05-04 03:14 | 39.42280 | -104.90033 | 12786 ft | 275 kts | 81° |
| 2026-05-04 03:15 | 39.42493 | -104.87621 | 12583 ft | 268 kts | 81° |
| 2026-05-04 03:15 | 39.42704 | -104.85238 | 12220 ft | 269 kts | 81° |
| 2026-05-04 03:15 | 39.42917 | -104.82855 | 11954 ft | 264 kts | 81° |
| 2026-05-04 03:15 | 39.43126 | -104.80498 | 11658 ft | 264 kts | 81° |
| 2026-05-04 03:16 | 39.43333 | -104.78153 | 11340 ft | 265 kts | 81° |
| 2026-05-04 03:16 | 39.43677 | -104.75840 | 11097 ft | 257 kts | 66° |
| 2026-05-04 03:16 | 39.44327 | -104.73737 | 11095 ft | 253 kts | 65° |
| 2026-05-04 03:16 | 39.44980 | -104.71610 | 11093 ft | 259 kts | 63° |
| 2026-05-04 03:17 | 39.45970 | -104.69714 | 11111 ft | 252 kts | 35° |
| 2026-05-04 03:17 | 39.47515 | -104.68722 | 11125 ft | 247 kts | 7° |
| 2026-05-04 03:17 | 39.49222 | -104.68426 | 11031 ft | 250 kts | 5° |
| 2026-05-04 03:17 | 39.50941 | -104.68088 | 10812 ft | 247 kts | 6° |
| 2026-05-04 03:18 | 39.52596 | -104.67732 | 10661 ft | 237 kts | 7° |
| 2026-05-04 03:18 | 39.54201 | -104.67376 | 10477 ft | 229 kts | 6° |
| 2026-05-04 03:18 | 39.55728 | -104.67030 | 10309 ft | 221 kts | 6° |
| 2026-05-04 03:18 | 39.57220 | -104.66686 | 10175 ft | 209 kts | 6° |
| 2026-05-04 03:19 | 39.58650 | -104.66377 | 10084 ft | 208 kts | 2° |
| 2026-05-04 03:19 | 39.60122 | -104.66316 | 9875 ft | 221 kts | 357° |
| 2026-05-04 03:19 | 39.61664 | -104.66309 | 9521 ft | 222 kts | 358° |
| 2026-05-04 03:19 | 39.63220 | -104.66290 | 9211 ft | 221 kts | 358° |
| 2026-05-04 03:20 | 39.64724 | -104.66280 | 8963 ft | 214 kts | 358° |
| 2026-05-04 03:20 | 39.66204 | -104.66265 | 8646 ft | 210 kts | 358° |
| 2026-05-04 03:20 | 39.67638 | -104.66248 | 8356 ft | 200 kts | 358° |
| 2026-05-04 03:20 | 39.68969 | -104.66228 | 8060 ft | 185 kts | 358° |
| 2026-05-04 03:21 | 39.70208 | -104.66206 | 7801 ft | 171 kts | 357° |
| 2026-05-04 03:21 | 39.71323 | -104.66196 | 7607 ft | 153 kts | 357° |
| 2026-05-04 03:21 | 39.72335 | -104.66183 | 7392 ft | 139 kts | 358° |
| 2026-05-04 03:21 | 39.73317 | -104.66173 | 7241 ft | 144 kts | 357° |
| 2026-05-04 03:22 | 39.74335 | -104.66166 | 7065 ft | 148 kts | 357° |
| 2026-05-04 03:22 | 39.75375 | -104.66149 | 6847 ft | 148 kts | 359° |
| 2026-05-04 03:22 | 39.76401 | -104.66110 | 6578 ft | 146 kts | 1° |
| 2026-05-04 03:22 | 39.77387 | -104.66061 | 6408 ft | 142 kts | 360° |
| 2026-05-04 03:23 | 39.78390 | -104.66070 | 6267 ft | 142 kts | 356° |
| 2026-05-04 03:23 | 39.79384 | -104.66107 | 6131 ft | 144 kts | 359° |
| 2026-05-04 03:23 | 39.80421 | -104.66072 | 5947 ft | 149 kts | 0° |
| 2026-05-04 03:23 | 39.81441 | -104.66054 | 5734 ft | 148 kts | 357° |
| 2026-05-04 03:24 | 39.82463 | -104.66061 | 5497 ft | 141 kts | 358° |
| 2026-05-04 03:24 | 39.83397 | -104.66060 | 5418 ft | 126 kts | 358° |
| 2026-05-04 03:24 | 39.84376 | -104.66033 | 5521 ft | 158 kts | 357° |
| 2026-05-04 03:24 | 39.85634 | -104.66042 | 5756 ft | 206 kts | 357° |
| 2026-05-04 03:25 | 39.87276 | -104.66038 | 5809 ft | 264 kts | 359° |
| 2026-05-04 03:25 | 39.89280 | -104.65999 | 5918 ft | 305 kts | 359° |
| 2026-05-04 03:25 | 39.91381 | -104.65985 | 7035 ft | 304 kts | 357° |
| 2026-05-04 03:25 | 39.93391 | -104.66042 | 7701 ft | 288 kts | 356° |
| 2026-05-04 03:26 | 39.95396 | -104.66113 | 7589 ft | 283 kts | 355° |
| 2026-05-04 03:26 | 39.97349 | -104.66215 | 7289 ft | 276 kts | 356° |
| 2026-05-04 03:26 | 39.99228 | -104.66168 | 7505 ft | 266 kts | 0° |
| 2026-05-04 03:26 | 40.01115 | -104.66054 | 8007 ft | 276 kts | 360° |
| 2026-05-04 03:27 | 40.03000 | -104.65650 | 8486 ft | 283 kts | 19° |
| 2026-05-04 03:27 | 40.04630 | -104.64191 | 9004 ft | 293 kts | 46° |
| 2026-05-04 03:27 | 40.05627 | -104.61861 | 9523 ft | 302 kts | 72° |
| 2026-05-04 03:27 | 40.05864 | -104.59106 | 9997 ft | 309 kts | 86° |
| 2026-05-04 03:28 | 40.05880 | -104.56255 | 10042 ft | 316 kts | 87° |
| 2026-05-04 03:28 | 40.05897 | -104.53435 | 10031 ft | 307 kts | 87° |
| 2026-05-04 03:28 | 40.05915 | -104.50657 | 10044 ft | 306 kts | 86° |
| 2026-05-04 03:28 | 40.05906 | -104.47880 | 10037 ft | 309 kts | 94° |
| 2026-05-04 03:29 | 40.05285 | -104.45216 | 10063 ft | 310 kts | 120° |
| 2026-05-04 03:29 | 40.03875 | -104.43134 | 10075 ft | 311 kts | 145° |
| 2026-05-04 03:29 | 40.01922 | -104.41989 | 10080 ft | 310 kts | 170° |
| 2026-05-04 03:29 | 39.99780 | -104.41655 | 10059 ft | 309 kts | 177° |
| 2026-05-04 03:30 | 39.97649 | -104.41419 | 10048 ft | 309 kts | 177° |
| 2026-05-04 03:30 | 39.95505 | -104.41183 | 10043 ft | 307 kts | 177° |
| 2026-05-04 03:30 | 39.93374 | -104.40951 | 10045 ft | 307 kts | 176° |
| 2026-05-04 03:30 | 39.91235 | -104.40730 | 10045 ft | 307 kts | 176° |
| 2026-05-04 03:31 | 39.89108 | -104.40527 | 10044 ft | 307 kts | 178° |
| 2026-05-04 03:31 | 39.86967 | -104.40344 | 10044 ft | 306 kts | 179° |
| 2026-05-04 03:31 | 39.84860 | -104.40241 | 10047 ft | 307 kts | 180° |
| 2026-05-04 03:31 | 39.82729 | -104.40144 | 10044 ft | 306 kts | 180° |
| 2026-05-04 03:32 | 39.80605 | -104.40052 | 10041 ft | 300 kts | 179° |
| 2026-05-04 03:32 | 39.78562 | -104.39969 | 10036 ft | 284 kts | 179° |
| 2026-05-04 03:32 | 39.76653 | -104.39889 | 10031 ft | 269 kts | 180° |
| 2026-05-04 03:32 | 39.74827 | -104.39807 | 10032 ft | 254 kts | 180° |
| 2026-05-04 03:33 | 39.73124 | -104.39721 | 10035 ft | 239 kts | 179° |
| 2026-05-04 03:33 | 39.71441 | -104.39640 | 10077 ft | 246 kts | 180° |
| 2026-05-04 03:33 | 39.69713 | -104.39562 | 10067 ft | 252 kts | 180° |
| 2026-05-04 03:33 | 39.67948 | -104.39486 | 10056 ft | 250 kts | 179° |
| 2026-05-04 03:34 | 39.66231 | -104.39410 | 10058 ft | 248 kts | 179° |
| 2026-05-04 03:34 | 39.64501 | -104.39337 | 10068 ft | 248 kts | 180° |
| 2026-05-04 03:34 | 39.62760 | -104.39267 | 9957 ft | 254 kts | 179° |
| 2026-05-04 03:34 | 39.60973 | -104.39204 | 9548 ft | 258 kts | 180° |
| 2026-05-04 03:35 | 39.59168 | -104.39153 | 9169 ft | 260 kts | 185° |
| 2026-05-04 03:35 | 39.57505 | -104.39760 | 9112 ft | 238 kts | 217° |
| 2026-05-04 03:35 | 39.56466 | -104.41242 | 9116 ft | 221 kts | 251° |
| 2026-05-04 03:35 | 39.56127 | -104.43205 | 9126 ft | 227 kts | 265° |
| 2026-05-04 03:36 | 39.55942 | -104.45203 | 9090 ft | 220 kts | 265° |
| 2026-05-04 03:36 | 39.55765 | -104.47128 | 9084 ft | 214 kts | 265° |
| 2026-05-04 03:36 | 39.55593 | -104.49043 | 9099 ft | 216 kts | 266° |
| 2026-05-04 03:36 | 39.55446 | -104.51015 | 9079 ft | 218 kts | 266° |
| 2026-05-04 03:37 | 39.55310 | -104.52937 | 9076 ft | 216 kts | 267° |
| 2026-05-04 03:37 | 39.55283 | -104.54881 | 9082 ft | 214 kts | 280° |
| 2026-05-04 03:37 | 39.55560 | -104.56785 | 9081 ft | 216 kts | 284° |
| 2026-05-04 03:37 | 39.55926 | -104.58645 | 9075 ft | 215 kts | 287° |
| 2026-05-04 03:38 | 39.56332 | -104.60505 | 9097 ft | 211 kts | 287° |
| 2026-05-04 03:38 | 39.56789 | -104.62299 | 9107 ft | 211 kts | 298° |
| 2026-05-04 03:38 | 39.57555 | -104.63924 | 9080 ft | 212 kts | 302° |
| 2026-05-04 03:38 | 39.58438 | -104.65437 | 9063 ft | 210 kts | 322° |
| 2026-05-04 03:39 | 39.59781 | -104.66114 | 9094 ft | 212 kts | 353° |
| 2026-05-04 03:39 | 39.61265 | -104.66171 | 9077 ft | 216 kts | 356° |
| 2026-05-04 03:39 | 39.62751 | -104.66209 | 9060 ft | 213 kts | 356° |
| 2026-05-04 03:39 | 39.64228 | -104.66232 | 9056 ft | 211 kts | 357° |
| 2026-05-04 03:40 | 39.65710 | -104.66218 | 9044 ft | 210 kts | 360° |
| 2026-05-04 03:40 | 39.67148 | -104.66142 | 8990 ft | 205 kts | 359° |
| 2026-05-04 03:40 | 39.68477 | -104.66076 | 8868 ft | 180 kts | 358° |
| 2026-05-04 03:40 | 39.69709 | -104.66024 | 8486 ft | 171 kts | 358° |
| 2026-05-04 03:41 | 39.70846 | -104.65999 | 8175 ft | 160 kts | 357° |
| 2026-05-04 03:41 | 39.71935 | -104.66012 | 7762 ft | 157 kts | 355° |
| 2026-05-04 03:41 | 39.73051 | -104.66042 | 7228 ft | 161 kts | 355° |
| 2026-05-04 03:41 | 39.74118 | -104.66067 | 6965 ft | 148 kts | 355° |
| 2026-05-04 03:42 | 39.75160 | -104.66074 | 6720 ft | 152 kts | 356° |
| 2026-05-04 03:42 | 39.76235 | -104.66081 | 6530 ft | 157 kts | 355° |
| 2026-05-04 03:42 | 39.77326 | -104.66098 | 6302 ft | 158 kts | 358° |
| 2026-05-04 03:42 | 39.78392 | -104.66065 | 6255 ft | 150 kts | 358° |
| 2026-05-04 03:43 | 39.79462 | -104.66056 | 6234 ft | 159 kts | 355° |
| 2026-05-04 03:43 | 39.80583 | -104.66072 | 6007 ft | 160 kts | 357° |
| 2026-05-04 03:43 | 39.81699 | -104.66067 | 5693 ft | 157 kts | 356° |
| 2026-05-04 03:43 | 39.82758 | -104.66054 | 5481 ft | 147 kts | 356° |
| 2026-05-04 03:44 | 39.83733 | -104.66054 | 5417 ft | 126 kts | 2° |
| 2026-05-04 03:44 | 39.84463 | -104.66035 | 5405 ft | 85 kts | 0° |
| 2026-05-04 03:44 | 39.84931 | -104.66033 | 5407 ft | 58 kts | 0° |
| 2026-05-04 03:44 | 39.85247 | -104.66120 | 5415 ft | 28 kts | 330° |
| 2026-05-04 03:45 | 39.85304 | -104.66250 | 5419 ft | 8 kts | 252° |
| 2026-05-04 03:45 | 39.85294 | -104.66307 | 5420 ft | 5 kts | 264° |
| 2026-05-04 03:45 | 39.85295 | -104.66372 | 5419 ft | 12 kts | 271° |
| 2026-05-04 03:45 | 39.85296 | -104.66506 | 5416 ft | 15 kts | 272° |
| 2026-05-04 03:46 | 39.85346 | -104.66588 | 5417 ft | 9 kts | 353° |
| 2026-05-04 03:46 | 39.85392 | -104.66589 | 5420 ft | 6 kts | 3° |
| 2026-05-04 03:46 | 39.85463 | -104.66583 | 5423 ft | 13 kts | 1° |
| 2026-05-04 03:46 | 39.85566 | -104.66626 | 5425 ft | 17 kts | 318° |
| 2026-05-04 03:47 | 39.85584 | -104.66804 | 5423 ft | 24 kts | 263° |
| 2026-05-04 03:47 | 39.85587 | -104.67019 | 5417 ft | 23 kts | 269° |
| 2026-05-04 03:47 | 39.85589 | -104.67205 | 5412 ft | 7 kts | 270° |
| 2026-05-04 03:47 | 39.85589 | -104.67238 | 5411 ft | 4 kts | 272° |
| 2026-05-04 03:48 | 39.85589 | -104.67241 | 5411 ft | 0 kts | 272° |
| 2026-05-04 03:48 | 39.85590 | -104.67246 | 5410 ft | 3 kts | 272° |
| 2026-05-04 03:48 | 39.85591 | -104.67300 | 5408 ft | 8 kts | 273° |
| 2026-05-04 03:48 | 39.85592 | -104.67395 | 5401 ft | 13 kts | 270° |
| 2026-05-04 03:49 | 39.85588 | -104.67514 | 5394 ft | 8 kts | 257° |
| 2026-05-04 03:49 | 39.85554 | -104.67597 | 5388 ft | 12 kts | 228° |
| 2026-05-04 03:49 | 39.85524 | -104.67641 | 5385 ft | 7 kts | 228° |
| 2026-05-04 03:49 | 39.85519 | -104.67648 | 5385 ft | 0 kts | 226° |
| 2026-05-04 03:50 | 39.85512 | -104.67651 | 5385 ft | 1 kts | 181° |
| 2026-05-04 03:50 | 39.85503 | -104.67645 | 5385 ft | 0 kts | 141° |
| 2026-05-04 03:50 | 39.85497 | -104.67639 | 5385 ft | 1 kts | 139° |
| 2026-05-04 03:50 | 39.85486 | -104.67628 | 5385 ft | 2 kts | 150° |
| 2026-05-04 03:51 | 39.85472 | -104.67619 | 5386 ft | 0 kts | 152° |
| 2026-05-04 03:51 | 39.85471 | -104.67619 | 5386 ft | 0 kts | 152° |
| 2026-05-04 03:52 | 39.85465 | -104.67613 | 5386 ft | 4 kts | 134° |
| 2026-05-04 03:52 | 39.85454 | -104.67594 | 5387 ft | 4 kts | 129° |
| 2026-05-04 03:52 | 39.85444 | -104.67581 | 5387 ft | 1 kts | 148° |
| 2026-05-04 03:53 | 39.85436 | -104.67579 | 5387 ft | 0 kts | 168° |
| 2026-05-04 03:56 | 39.85446 | -104.67579 | 5387 ft | 2 kts | 190° |
| 2026-05-04 03:56 | 39.85461 | -104.67576 | 5388 ft | 1 kts | 184° |
| 2026-05-04 03:57 | 39.85435 | -104.67576 | 5387 ft | 1 kts | 179° |
| 2026-05-04 03:57 | 39.85428 | -104.67577 | 5387 ft | 0 kts | 181° |
| 2026-05-04 03:59 | 39.85435 | -104.67577 | 5385 ft | 0 kts | 181° |